sensor_id;sensor_type;location;lat;lon;timestamp;pressure;altitude;pressure_sealevel;temperature;humidity
76603;BME280;65075;48.390;17.598;2023-05-02T00:00:14;99753.28;;;18.51;37.22
76603;BME280;65075;48.390;17.598;2023-05-02T00:02:40;99735.41;;;18.04;37.46
76603;BME280;65075;48.390;17.598;2023-05-02T00:05:06;99689.22;;;17.96;37.32
76603;BME280;65075;48.390;17.598;2023-05-02T00:07:32;99743.25;;;17.03;40.42
76603;BME280;65075;48.390;17.598;2023-05-02T00:09:58;99745.00;;;16.39;41.35
76603;BME280;65075;48.390;17.598;2023-05-02T00:12:24;99753.72;;;16.14;41.09
76603;BME280;65075;48.390;17.598;2023-05-02T00:14:50;99742.34;;;15.51;42.23
76603;BME280;65075;48.390;17.598;2023-05-02T00:17:17;99743.78;;;15.06;43.21
76603;BME280;65075;48.390;17.598;2023-05-02T00:19:43;99719.81;;;14.88;43.16
76603;BME280;65075;48.390;17.598;2023-05-02T00:22:08;99750.66;;;14.32;44.41
76603;BME280;65075;48.390;17.598;2023-05-02T00:24:34;99733.84;;;14.63;43.45
76603;BME280;65075;48.390;17.598;2023-05-02T00:26:59;99751.19;;;14.01;44.30
76603;BME280;65075;48.390;17.598;2023-05-02T00:29:25;99729.16;;;14.40;43.71
76603;BME280;65075;48.390;17.598;2023-05-02T00:31:50;99739.56;;;14.43;44.08
76603;BME280;65075;48.390;17.598;2023-05-02T00:34:16;99737.97;;;14.37;43.92
76603;BME280;65075;48.390;17.598;2023-05-02T00:36:41;99744.59;;;14.83;42.89
76603;BME280;65075;48.390;17.598;2023-05-02T00:39:07;99700.31;;;15.83;40.09
76603;BME280;65075;48.390;17.598;2023-05-02T00:41:32;99748.63;;;16.21;39.64
76603;BME280;65075;48.390;17.598;2023-05-02T00:43:58;99743.78;;;16.45;38.51
76603;BME280;65075;48.390;17.598;2023-05-02T00:46:24;99741.75;;;18.04;36.73
76603;BME280;65075;48.390;17.598;2023-05-02T00:48:50;99757.38;;;18.31;35.66
76603;BME280;65075;48.390;17.598;2023-05-02T00:51:15;99737.69;;;17.80;37.52
76603;BME280;65075;48.390;17.598;2023-05-02T00:53:42;99757.09;;;19.03;35.07
76603;BME280;65075;48.390;17.598;2023-05-02T00:56:07;99743.50;;;19.32;33.35
76603;BME280;65075;48.390;17.598;2023-05-02T00:58:35;99760.13;;;18.93;36.33
76603;BME280;65075;48.390;17.598;2023-05-02T01:09:19;99741.38;;;17.26;40.77
76603;BME280;65075;48.390;17.598;2023-05-02T01:11:47;99746.19;;;17.69;41.01
76603;BME280;65075;48.390;17.598;2023-05-02T01:14:17;99746.56;;;17.54;40.71
76603;BME280;65075;48.390;17.598;2023-05-02T01:16:47;99737.28;;;18.17;39.99
76603;BME280;65075;48.390;17.598;2023-05-02T01:19:24;99744.78;;;17.45;41.02
76603;BME280;65075;48.390;17.598;2023-05-02T01:21:52;99695.66;;;17.83;39.50
76603;BME280;65075;48.390;17.598;2023-05-02T01:24:24;99734.53;;;18.48;39.14
76603;BME280;65075;48.390;17.598;2023-05-02T01:29:39;99750.72;;;17.88;41.00
76603;BME280;65075;48.390;17.598;2023-05-02T01:32:08;99752.69;;;18.62;39.19
76603;BME280;65075;48.390;17.598;2023-05-02T01:34:35;99753.75;;;18.83;39.04
76603;BME280;65075;48.390;17.598;2023-05-02T01:37:05;99750.34;;;16.49;44.23
76603;BME280;65075;48.390;17.598;2023-05-02T01:39:33;99744.66;;;16.87;44.30
76603;BME280;65075;48.390;17.598;2023-05-02T01:42:02;99752.97;;;17.63;42.16
76603;BME280;65075;48.390;17.598;2023-05-02T01:44:31;99744.84;;;17.31;42.83
76603;BME280;65075;48.390;17.598;2023-05-02T01:47:01;99749.75;;;17.07;43.27
76603;BME280;65075;48.390;17.598;2023-05-02T01:49:32;99755.88;;;17.81;41.39
76603;BME280;65075;48.390;17.598;2023-05-02T01:52:07;99729.81;;;17.37;42.30
76603;BME280;65075;48.390;17.598;2023-05-02T01:54:35;99746.56;;;17.77;41.21
76603;BME280;65075;48.390;17.598;2023-05-02T01:57:05;99715.75;;;17.61;41.39
76603;BME280;65075;48.390;17.598;2023-05-02T01:59:33;99747.06;;;17.43;41.29
76603;BME280;65075;48.390;17.598;2023-05-02T02:02:01;99754.31;;;17.39;42.05
76603;BME280;65075;48.390;17.598;2023-05-02T02:04:30;99754.03;;;17.40;41.52
76603;BME280;65075;48.390;17.598;2023-05-02T02:07:01;99747.13;;;17.02;42.26
76603;BME280;65075;48.390;17.598;2023-05-02T02:09:29;99738.28;;;16.45;43.57
76603;BME280;65075;48.390;17.598;2023-05-02T02:12:05;99716.63;;;15.93;44.88
76603;BME280;65075;48.390;17.598;2023-05-02T02:15:37;99751.97;;;14.64;47.02
76603;BME280;65075;48.390;17.598;2023-05-02T02:17:46;99739.66;;;16.62;42.66
76603;BME280;65075;48.390;17.598;2023-05-02T02:20:14;99731.50;;;16.24;43.95
76603;BME280;65075;48.390;17.598;2023-05-02T02:22:43;99748.75;;;16.76;42.55
76603;BME280;65075;48.390;17.598;2023-05-02T02:25:15;99753.09;;;17.31;41.07
76603;BME280;65075;48.390;17.598;2023-05-02T02:27:41;99737.28;;;17.23;41.39
76603;BME280;65075;48.390;17.598;2023-05-02T02:30:08;99744.53;;;17.19;41.43
76603;BME280;65075;48.390;17.598;2023-05-02T02:32:34;99748.47;;;15.99;44.79
76603;BME280;65075;48.390;17.598;2023-05-02T02:35:00;99753.03;;;16.82;42.62
76603;BME280;65075;48.390;17.598;2023-05-02T02:37:29;99754.34;;;16.57;43.01
76603;BME280;65075;48.390;17.598;2023-05-02T02:42:59;99756.22;;;12.91;52.35
76603;BME280;65075;48.390;17.598;2023-05-02T02:45:34;99762.91;;;15.91;44.97
76603;BME280;65075;48.390;17.598;2023-05-02T02:48:25;99754.69;;;16.83;42.50
76603;BME280;65075;48.390;17.598;2023-05-02T02:53:33;99761.00;;;15.54;45.75
76603;BME280;65075;48.390;17.598;2023-05-02T02:56:05;99774.38;;;15.18;47.40
76603;BME280;65075;48.390;17.598;2023-05-02T02:58:54;99772.91;;;16.19;44.95
76603;BME280;65075;48.390;17.598;2023-05-02T03:01:23;99772.13;;;15.02;46.24
76603;BME280;65075;48.390;17.598;2023-05-02T03:03:53;99761.31;;;14.86;47.08
76603;BME280;65075;48.390;17.598;2023-05-02T03:06:23;99771.53;;;15.84;45.70
76603;BME280;65075;48.390;17.598;2023-05-02T03:08:48;99781.16;;;16.51;43.44
76603;BME280;65075;48.390;17.598;2023-05-02T03:11:14;99771.84;;;16.47;43.42
76603;BME280;65075;48.390;17.598;2023-05-02T03:13:40;99772.28;;;16.22;43.51
76603;BME280;65075;48.390;17.598;2023-05-02T03:18:54;99779.94;;;16.25;44.14
76603;BME280;65075;48.390;17.598;2023-05-02T03:21:19;99758.53;;;15.53;45.54
76603;BME280;65075;48.390;17.598;2023-05-02T03:23:45;99787.03;;;13.32;51.92
76603;BME280;65075;48.390;17.598;2023-05-02T03:26:10;99773.25;;;14.77;48.49
76603;BME280;65075;48.390;17.598;2023-05-02T03:28:36;99774.34;;;15.42;46.63
76603;BME280;65075;48.390;17.598;2023-05-02T03:31:01;99717.22;;;16.22;43.25
76603;BME280;65075;48.390;17.598;2023-05-02T03:33:27;99766.91;;;16.77;42.43
76603;BME280;65075;48.390;17.598;2023-05-02T03:35:52;99772.25;;;16.09;43.86
76603;BME280;65075;48.390;17.598;2023-05-02T03:38:18;99775.66;;;15.50;46.27
76603;BME280;65075;48.390;17.598;2023-05-02T03:40:43;99712.19;;;15.97;43.25
76603;BME280;65075;48.390;17.598;2023-05-02T03:43:09;99784.09;;;14.87;47.10
76603;BME280;65075;48.390;17.598;2023-05-02T03:45:35;99756.28;;;16.70;42.03
76603;BME280;65075;48.390;17.598;2023-05-02T03:48:01;99761.69;;;15.22;45.46
76603;BME280;65075;48.390;17.598;2023-05-02T03:50:27;99780.53;;;15.53;45.90
76603;BME280;65075;48.390;17.598;2023-05-02T03:52:53;99780.97;;;16.62;43.17
76603;BME280;65075;48.390;17.598;2023-05-02T03:55:19;99788.44;;;14.93;48.67
76603;BME280;65075;48.390;17.598;2023-05-02T03:57:45;99791.66;;;16.17;45.53
76603;BME280;65075;48.390;17.598;2023-05-02T04:00:11;99797.94;;;15.24;46.31
76603;BME280;65075;48.390;17.598;2023-05-02T04:02:37;99749.53;;;15.05;47.84
76603;BME280;65075;48.390;17.598;2023-05-02T04:05:03;99789.31;;;15.12;46.44
76603;BME280;65075;48.390;17.598;2023-05-02T04:07:28;99786.59;;;12.99;52.51
76603;BME280;65075;48.390;17.598;2023-05-02T04:09:54;99791.59;;;15.05;48.29
76603;BME280;65075;48.390;17.598;2023-05-02T04:12:19;99794.72;;;15.78;45.48
76603;BME280;65075;48.390;17.598;2023-05-02T04:14:45;99780.81;;;16.53;44.06
76603;BME280;65075;48.390;17.598;2023-05-02T04:17:12;99790.41;;;17.29;41.76
76603;BME280;65075;48.390;17.598;2023-05-02T04:19:39;99788.06;;;16.95;43.06
76603;BME280;65075;48.390;17.598;2023-05-02T04:22:06;99793.03;;;16.33;43.78
76603;BME280;65075;48.390;17.598;2023-05-02T04:24:32;99809.09;;;15.94;44.77
76603;BME280;65075;48.390;17.598;2023-05-02T04:26:58;99806.19;;;15.67;46.34
76603;BME280;65075;48.390;17.598;2023-05-02T04:29:23;99801.81;;;15.23;47.18
76603;BME280;65075;48.390;17.598;2023-05-02T04:31:50;99815.50;;;14.81;49.26
76603;BME280;65075;48.390;17.598;2023-05-02T04:34:15;99771.00;;;14.55;49.51
76603;BME280;65075;48.390;17.598;2023-05-02T04:36:41;99818.69;;;14.30;50.67
76603;BME280;65075;48.390;17.598;2023-05-02T04:39:09;99811.34;;;13.92;52.65
76603;BME280;65075;48.390;17.598;2023-05-02T04:41:34;99816.66;;;15.22;49.71
76603;BME280;65075;48.390;17.598;2023-05-02T04:44:00;99777.81;;;15.29;48.66
76603;BME280;65075;48.390;17.598;2023-05-02T04:46:25;99821.75;;;15.10;50.14
76603;BME280;65075;48.390;17.598;2023-05-02T04:48:51;99809.34;;;13.64;53.31
76603;BME280;65075;48.390;17.598;2023-05-02T04:51:17;99833.59;;;14.19;52.77
76603;BME280;65075;48.390;17.598;2023-05-02T04:53:42;99835.69;;;14.95;51.60
76603;BME280;65075;48.390;17.598;2023-05-02T04:56:08;99815.66;;;15.13;50.42
76603;BME280;65075;48.390;17.598;2023-05-02T04:58:33;99824.22;;;14.88;51.85
76603;BME280;65075;48.390;17.598;2023-05-02T05:01:02;99790.31;;;15.64;48.66
76603;BME280;65075;48.390;17.598;2023-05-02T05:03:27;99825.00;;;15.36;49.59
76603;BME280;65075;48.390;17.598;2023-05-02T05:05:58;99815.75;;;13.88;53.38
76603;BME280;65075;48.390;17.598;2023-05-02T05:08:23;99827.63;;;16.39;47.25
76603;BME280;65075;48.390;17.598;2023-05-02T05:10:49;99827.47;;;15.80;47.91
76603;BME280;65075;48.390;17.598;2023-05-02T05:13:15;99838.84;;;14.16;51.40
76603;BME280;65075;48.390;17.598;2023-05-02T05:15:40;99814.97;;;14.79;50.22
76603;BME280;65075;48.390;17.598;2023-05-02T05:18:06;99828.50;;;16.02;47.01
76603;BME280;65075;48.390;17.598;2023-05-02T05:20:31;99816.56;;;14.22;50.77
76603;BME280;65075;48.390;17.598;2023-05-02T05:22:58;99856.13;;;13.18;55.41
76603;BME280;65075;48.390;17.598;2023-05-02T05:25:27;99845.59;;;14.33;52.81
76603;BME280;65075;48.390;17.598;2023-05-02T05:27:53;99840.84;;;16.24;47.16
76603;BME280;65075;48.390;17.598;2023-05-02T05:30:21;99850.34;;;16.13;48.18
76603;BME280;65075;48.390;17.598;2023-05-02T05:32:47;99798.34;;;16.11;46.48
76603;BME280;65075;48.390;17.598;2023-05-02T05:35:12;99837.06;;;13.57;54.56
76603;BME280;65075;48.390;17.598;2023-05-02T05:37:38;99848.31;;;16.55;47.90
76603;BME280;65075;48.390;17.598;2023-05-02T05:40:07;99849.75;;;15.60;48.69
76603;BME280;65075;48.390;17.598;2023-05-02T05:42:33;99855.44;;;15.21;49.86
76603;BME280;65075;48.390;17.598;2023-05-02T05:44:59;99856.09;;;13.83;53.46
76603;BME280;65075;48.390;17.598;2023-05-02T05:47:25;99867.31;;;15.40;51.19
76603;BME280;65075;48.390;17.598;2023-05-02T05:49:54;99830.03;;;17.19;45.28
76603;BME280;65075;48.390;17.598;2023-05-02T05:52:21;99871.09;;;15.44;49.29
76603;BME280;65075;48.390;17.598;2023-05-02T05:54:46;99863.00;;;13.70;56.28
76603;BME280;65075;48.390;17.598;2023-05-02T05:57:12;99860.09;;;15.68;49.15
76603;BME280;65075;48.390;17.598;2023-05-02T05:59:37;99872.84;;;14.59;51.41
76603;BME280;65075;48.390;17.598;2023-05-02T06:02:03;99867.72;;;14.47;52.20
76603;BME280;65075;48.390;17.598;2023-05-02T06:04:29;99864.97;;;14.47;53.21
76603;BME280;65075;48.390;17.598;2023-05-02T06:06:55;99883.66;;;14.06;55.80
76603;BME280;65075;48.390;17.598;2023-05-02T06:09:21;99881.75;;;15.03;52.40
76603;BME280;65075;48.390;17.598;2023-05-02T06:11:46;99830.34;;;15.70;50.94
76603;BME280;65075;48.390;17.598;2023-05-02T06:14:12;99869.00;;;15.60;48.67
76603;BME280;65075;48.390;17.598;2023-05-02T06:16:37;99897.41;;;15.03;50.28
76603;BME280;65075;48.390;17.598;2023-05-02T06:19:03;99894.03;;;15.11;50.79
76603;BME280;65075;48.390;17.598;2023-05-02T06:21:28;99876.84;;;15.24;50.97
76603;BME280;65075;48.390;17.598;2023-05-02T06:23:55;99866.25;;;14.60;51.99
76603;BME280;65075;48.390;17.598;2023-05-02T06:26:21;99896.03;;;15.53;49.21
76603;BME280;65075;48.390;17.598;2023-05-02T06:28:46;99892.03;;;14.64;52.30
76603;BME280;65075;48.390;17.598;2023-05-02T06:31:12;99887.84;;;15.48;50.08
76603;BME280;65075;48.390;17.598;2023-05-02T06:33:37;99865.91;;;15.42;50.06
76603;BME280;65075;48.390;17.598;2023-05-02T06:36:03;99873.22;;;15.28;49.62
76603;BME280;65075;48.390;17.598;2023-05-02T06:38:29;99922.84;;;15.66;50.17
76603;BME280;65075;48.390;17.598;2023-05-02T06:40:55;99916.50;;;16.26;47.96
76603;BME280;65075;48.390;17.598;2023-05-02T06:43:20;99913.16;;;15.50;51.36
76603;BME280;65075;48.390;17.598;2023-05-02T06:45:46;99913.63;;;18.59;42.19
76603;BME280;65075;48.390;17.598;2023-05-02T06:48:11;99933.22;;;16.67;46.40
76603;BME280;65075;48.390;17.598;2023-05-02T06:50:37;99932.38;;;17.45;45.13
76603;BME280;65075;48.390;17.598;2023-05-02T06:53:03;99934.41;;;15.86;49.87
76603;BME280;65075;48.390;17.598;2023-05-02T06:55:29;99937.91;;;14.92;54.38
76603;BME280;65075;48.390;17.598;2023-05-02T06:57:55;99940.09;;;15.48;53.79
76603;BME280;65075;48.390;17.598;2023-05-02T07:00:21;99944.06;;;15.08;55.30
76603;BME280;65075;48.390;17.598;2023-05-02T07:02:48;99942.25;;;16.35;50.15
76603;BME280;65075;48.390;17.598;2023-05-02T07:05:14;99932.25;;;16.02;49.13
76603;BME280;65075;48.390;17.598;2023-05-02T07:07:40;99934.59;;;17.15;47.50
76603;BME280;65075;48.390;17.598;2023-05-02T07:10:07;99922.34;;;17.35;45.41
76603;BME280;65075;48.390;17.598;2023-05-02T07:12:33;99894.00;;;17.62;44.89
76603;BME280;65075;48.390;17.598;2023-05-02T07:14:58;99902.63;;;16.69;47.34
76603;BME280;65075;48.390;17.598;2023-05-02T07:17:24;99907.38;;;16.82;48.00
76603;BME280;65075;48.390;17.598;2023-05-02T07:19:51;99910.81;;;17.33;47.49
76603;BME280;65075;48.390;17.598;2023-05-02T07:22:17;99906.81;;;18.88;43.93
76603;BME280;65075;48.390;17.598;2023-05-02T07:24:42;99899.28;;;17.86;47.00
76603;BME280;65075;48.390;17.598;2023-05-02T07:27:09;99912.53;;;17.15;48.14
76603;BME280;65075;48.390;17.598;2023-05-02T07:29:35;99917.63;;;16.07;52.61
76603;BME280;65075;48.390;17.598;2023-05-02T07:32:01;99937.56;;;16.36;50.49
76603;BME280;65075;48.390;17.598;2023-05-02T07:34:26;99931.84;;;15.71;52.00
76603;BME280;65075;48.390;17.598;2023-05-02T07:36:52;99899.41;;;14.97;53.62
76603;BME280;65075;48.390;17.598;2023-05-02T07:39:18;99915.81;;;16.16;51.27
76603;BME280;65075;48.390;17.598;2023-05-02T07:41:43;99940.53;;;16.02;52.25
76603;BME280;65075;48.390;17.598;2023-05-02T07:44:10;99936.22;;;17.03;49.76
76603;BME280;65075;48.390;17.598;2023-05-02T07:46:36;99949.78;;;18.00;47.51
76603;BME280;65075;48.390;17.598;2023-05-02T07:49:01;99946.22;;;17.12;50.21
76603;BME280;65075;48.390;17.598;2023-05-02T07:51:28;99927.75;;;15.69;53.74
76603;BME280;65075;48.390;17.598;2023-05-02T07:53:53;99941.72;;;14.96;56.51
76603;BME280;65075;48.390;17.598;2023-05-02T07:56:25;99944.25;;;15.16;59.73
76603;BME280;65075;48.390;17.598;2023-05-02T07:58:50;99914.16;;;17.03;52.77
76603;BME280;65075;48.390;17.598;2023-05-02T08:01:16;99943.03;;;17.79;51.64
76603;BME280;65075;48.390;17.598;2023-05-02T08:03:44;99937.69;;;17.41;52.43
76603;BME280;65075;48.390;17.598;2023-05-02T08:06:09;99927.00;;;17.81;50.28
76603;BME280;65075;48.390;17.598;2023-05-02T08:08:35;99925.56;;;17.69;50.28
76603;BME280;65075;48.390;17.598;2023-05-02T08:11:01;99937.66;;;17.00;52.71
76603;BME280;65075;48.390;17.598;2023-05-02T08:13:27;99943.81;;;18.78;50.67
76603;BME280;65075;48.390;17.598;2023-05-02T08:15:53;99948.38;;;20.06;47.17
76603;BME280;65075;48.390;17.598;2023-05-02T08:18:25;99938.59;;;18.99;49.08
76603;BME280;65075;48.390;17.598;2023-05-02T08:20:52;99943.00;;;19.00;51.48
76603;BME280;65075;48.390;17.598;2023-05-02T08:23:17;99948.63;;;19.78;49.55
76603;BME280;65075;48.390;17.598;2023-05-02T08:25:43;99949.84;;;21.40;42.14
76603;BME280;65075;48.390;17.598;2023-05-02T08:28:08;99940.97;;;21.85;42.61
76603;BME280;65075;48.390;17.598;2023-05-02T08:30:34;99951.59;;;21.91;41.41
76603;BME280;65075;48.390;17.598;2023-05-02T08:33:00;99945.25;;;22.11;38.50
76603;BME280;65075;48.390;17.598;2023-05-02T08:35:27;99946.34;;;20.71;35.87
76603;BME280;65075;48.390;17.598;2023-05-02T08:37:53;99935.19;;;21.98;35.29
76603;BME280;65075;48.390;17.598;2023-05-02T08:40:19;99937.47;;;22.26;37.21
76603;BME280;65075;48.390;17.598;2023-05-02T08:42:46;99954.22;;;21.79;36.19
76603;BME280;65075;48.390;17.598;2023-05-02T08:45:13;99958.53;;;22.27;34.77
76603;BME280;65075;48.390;17.598;2023-05-02T08:47:40;99950.47;;;22.13;36.48
76603;BME280;65075;48.390;17.598;2023-05-02T08:50:07;99945.91;;;21.79;35.14
76603;BME280;65075;48.390;17.598;2023-05-02T08:52:34;99954.47;;;22.24;34.10
76603;BME280;65075;48.390;17.598;2023-05-02T08:55:05;99951.19;;;22.01;34.73
76603;BME280;65075;48.390;17.598;2023-05-02T08:57:31;99938.06;;;21.35;35.68
76603;BME280;65075;48.390;17.598;2023-05-02T08:59:57;99931.31;;;20.81;35.94
76603;BME280;65075;48.390;17.598;2023-05-02T09:05:11;99954.19;;;21.50;35.89
76603;BME280;65075;48.390;17.598;2023-05-02T09:07:54;99962.13;;;20.28;36.04
76603;BME280;65075;48.390;17.598;2023-05-02T09:10:20;99949.09;;;21.52;36.46
76603;BME280;65075;48.390;17.598;2023-05-02T09:12:46;99954.94;;;21.13;37.37
76603;BME280;65075;48.390;17.598;2023-05-02T09:15:16;99950.88;;;21.10;36.94
76603;BME280;65075;48.390;17.598;2023-05-02T09:17:46;99948.91;;;21.10;36.17
76603;BME280;65075;48.390;17.598;2023-05-02T09:20:14;99951.50;;;21.07;36.44
76603;BME280;65075;48.390;17.598;2023-05-02T09:22:51;99955.16;;;21.83;36.27
76603;BME280;65075;48.390;17.598;2023-05-02T09:25:18;99954.06;;;21.38;37.70
76603;BME280;65075;48.390;17.598;2023-05-02T09:27:51;99965.44;;;22.20;35.48
76603;BME280;65075;48.390;17.598;2023-05-02T09:30:22;99958.34;;;23.26;35.25
76603;BME280;65075;48.390;17.598;2023-05-02T09:32:49;99977.63;;;21.32;38.62
76603;BME280;65075;48.390;17.598;2023-05-02T09:35:20;99958.97;;;22.58;36.13
76603;BME280;65075;48.390;17.598;2023-05-02T09:37:58;99960.03;;;23.07;34.93
76603;BME280;65075;48.390;17.598;2023-05-02T09:40:24;99960.34;;;22.72;36.30
76603;BME280;65075;48.390;17.598;2023-05-02T09:42:51;99973.88;;;21.74;37.09
76603;BME280;65075;48.390;17.598;2023-05-02T09:45:24;99966.81;;;23.51;34.15
76603;BME280;65075;48.390;17.598;2023-05-02T09:47:51;99954.84;;;25.74;31.94
76603;BME280;65075;48.390;17.598;2023-05-02T09:50:34;99963.63;;;27.53;29.66
76603;BME280;65075;48.390;17.598;2023-05-02T09:53:02;99985.22;;;27.11;29.74
76603;BME280;65075;48.390;17.598;2023-05-02T09:55:28;99977.16;;;26.71;30.73
76603;BME280;65075;48.390;17.598;2023-05-02T09:57:53;99982.78;;;27.51;28.75
76603;BME280;65075;48.390;17.598;2023-05-02T10:00:19;99982.50;;;27.79;28.18
76603;BME280;65075;48.390;17.598;2023-05-02T10:02:48;99986.38;;;27.10;29.13
76603;BME280;65075;48.390;17.598;2023-05-02T10:05:16;99974.31;;;25.70;30.64
76603;BME280;65075;48.390;17.598;2023-05-02T10:07:44;99977.81;;;28.09;27.72
76603;BME280;65075;48.390;17.598;2023-05-02T10:10:16;99994.50;;;26.26;30.54
76603;BME280;65075;48.390;17.598;2023-05-02T10:12:42;99972.28;;;26.68;30.64
76603;BME280;65075;48.390;17.598;2023-05-02T10:15:15;99982.06;;;27.54;29.08
76603;BME280;65075;48.390;17.598;2023-05-02T10:17:47;99953.00;;;26.28;31.80
76603;BME280;65075;48.390;17.598;2023-05-02T10:20:19;99983.88;;;26.16;31.94
76603;BME280;65075;48.390;17.598;2023-05-02T10:22:48;99980.41;;;26.38;31.91
76603;BME280;65075;48.390;17.598;2023-05-02T10:25:15;99981.13;;;24.86;34.00
76603;BME280;65075;48.390;17.598;2023-05-02T10:27:41;99979.97;;;26.21;32.45
76603;BME280;65075;48.390;17.598;2023-05-02T10:30:08;99971.44;;;26.48;31.41
76603;BME280;65075;48.390;17.598;2023-05-02T10:32:35;99945.38;;;25.94;31.36
76603;BME280;65075;48.390;17.598;2023-05-02T10:35:04;99966.72;;;26.02;31.59
76603;BME280;65075;48.390;17.598;2023-05-02T10:37:32;99932.94;;;23.97;33.94
76603;BME280;65075;48.390;17.598;2023-05-02T10:39:59;99954.75;;;25.70;30.74
76603;BME280;65075;48.390;17.598;2023-05-02T10:42:27;99971.69;;;26.24;30.82
76603;BME280;65075;48.390;17.598;2023-05-02T10:44:55;99963.53;;;25.25;32.60
76603;BME280;65075;48.390;17.598;2023-05-02T10:47:23;99968.34;;;24.85;33.08
76603;BME280;65075;48.390;17.598;2023-05-02T10:49:54;99962.66;;;23.81;34.54
76603;BME280;65075;48.390;17.598;2023-05-02T10:52:35;99975.09;;;24.72;33.99
76603;BME280;65075;48.390;17.598;2023-05-02T11:00:29;99961.50;;;25.69;31.72
76603;BME280;65075;48.390;17.598;2023-05-02T11:02:55;99963.97;;;25.27;32.27
76603;BME280;65075;48.390;17.598;2023-05-02T11:05:23;99953.97;;;24.98;34.15
76603;BME280;65075;48.390;17.598;2023-05-02T11:07:49;99928.97;;;23.98;35.22
76603;BME280;65075;48.390;17.598;2023-05-02T11:10:35;99945.91;;;24.17;35.77
76603;BME280;65075;48.390;17.598;2023-05-02T11:13:00;99958.22;;;23.92;38.20
76603;BME280;65075;48.390;17.598;2023-05-02T11:18:05;99953.09;;;23.58;38.57
76603;BME280;65075;48.390;17.598;2023-05-02T11:20:35;99931.22;;;24.57;35.62
76603;BME280;65075;48.390;17.598;2023-05-02T11:23:20;99947.63;;;25.14;34.92
76603;BME280;65075;48.390;17.598;2023-05-02T11:25:48;99950.97;;;25.19;35.17
76603;BME280;65075;48.390;17.598;2023-05-02T11:34:01;99933.59;;;23.13;39.34
76603;BME280;65075;48.390;17.598;2023-05-02T11:36:31;99951.97;;;22.52;42.07
76603;BME280;65075;48.390;17.598;2023-05-02T11:39:00;99938.31;;;23.33;39.98
76603;BME280;65075;48.390;17.598;2023-05-02T11:41:42;99953.47;;;23.23;40.85
76603;BME280;65075;48.390;17.598;2023-05-02T11:44:08;99946.84;;;22.42;40.87
76603;BME280;65075;48.390;17.598;2023-05-02T11:46:38;99949.16;;;22.40;41.75
76603;BME280;65075;48.390;17.598;2023-05-02T11:49:05;99959.00;;;22.78;41.05
76603;BME280;65075;48.390;17.598;2023-05-02T11:51:33;99954.19;;;23.32;40.07
76603;BME280;65075;48.390;17.598;2023-05-02T11:53:58;99949.41;;;22.88;40.41
76603;BME280;65075;48.390;17.598;2023-05-02T11:56:25;99912.38;;;23.08;39.54
76603;BME280;65075;48.390;17.598;2023-05-02T11:59:01;99944.34;;;22.69;41.32
76603;BME280;65075;48.390;17.598;2023-05-02T12:01:28;99912.91;;;22.69;39.85
76603;BME280;65075;48.390;17.598;2023-05-02T12:04:20;99960.31;;;22.52;41.15
76603;BME280;65075;48.390;17.598;2023-05-02T12:06:55;99965.59;;;21.95;43.12
76603;BME280;65075;48.390;17.598;2023-05-02T12:09:21;99942.22;;;21.58;42.64
76603;BME280;65075;48.390;17.598;2023-05-02T12:11:53;99956.94;;;22.26;41.47
76603;BME280;65075;48.390;17.598;2023-05-02T12:14:27;99955.31;;;21.95;40.49
76603;BME280;65075;48.390;17.598;2023-05-02T12:16:57;99961.91;;;22.82;39.50
76603;BME280;65075;48.390;17.598;2023-05-02T12:19:23;99944.75;;;22.59;40.21
76603;BME280;65075;48.390;17.598;2023-05-02T12:21:50;99950.41;;;21.92;42.15
76603;BME280;65075;48.390;17.598;2023-05-02T12:24:16;99952.72;;;22.19;40.83
76603;BME280;65075;48.390;17.598;2023-05-02T12:26:42;99915.59;;;21.86;41.53
76603;BME280;65075;48.390;17.598;2023-05-02T12:29:07;99957.34;;;22.57;41.27
76603;BME280;65075;48.390;17.598;2023-05-02T12:31:33;99919.75;;;22.09;41.72
76603;BME280;65075;48.390;17.598;2023-05-02T12:33:59;99953.28;;;23.28;40.32
76603;BME280;65075;48.390;17.598;2023-05-02T12:36:26;99948.97;;;22.65;40.64
76603;BME280;65075;48.390;17.598;2023-05-02T12:38:54;99922.69;;;23.08;40.62
76603;BME280;65075;48.390;17.598;2023-05-02T12:41:35;99949.94;;;23.02;41.30
76603;BME280;65075;48.390;17.598;2023-05-02T12:44:02;99939.88;;;21.77;42.66
76603;BME280;65075;48.390;17.598;2023-05-02T12:46:28;99951.41;;;22.67;41.68
76603;BME280;65075;48.390;17.598;2023-05-02T12:49:09;99945.69;;;22.84;40.81
76603;BME280;65075;48.390;17.598;2023-05-02T12:51:40;99939.31;;;22.84;40.73
76603;BME280;65075;48.390;17.598;2023-05-02T12:54:06;99935.50;;;22.05;42.52
76603;BME280;65075;48.390;17.598;2023-05-02T12:56:39;99932.94;;;21.83;42.67
76603;BME280;65075;48.390;17.598;2023-05-02T12:59:05;99901.66;;;21.36;43.52
76603;BME280;65075;48.390;17.598;2023-05-02T13:01:32;99907.56;;;22.22;43.08
76603;BME280;65075;48.390;17.598;2023-05-02T13:03:58;99944.66;;;21.68;43.34
76603;BME280;65075;48.390;17.598;2023-05-02T13:06:24;99923.63;;;21.50;44.27
76603;BME280;65075;48.390;17.598;2023-05-02T13:08:50;99934.97;;;21.74;44.28
76603;BME280;65075;48.390;17.598;2023-05-02T13:11:16;99939.06;;;21.77;42.81
76603;BME280;65075;48.390;17.598;2023-05-02T13:13:42;99945.06;;;21.87;44.15
76603;BME280;65075;48.390;17.598;2023-05-02T13:16:07;99920.44;;;22.27;42.35
76603;BME280;65075;48.390;17.598;2023-05-02T13:18:33;99895.34;;;22.36;41.85
76603;BME280;65075;48.390;17.598;2023-05-02T13:20:59;99928.59;;;21.36;42.40
76603;BME280;65075;48.390;17.598;2023-05-02T13:23:24;99919.91;;;22.54;41.48
76603;BME280;65075;48.390;17.598;2023-05-02T13:25:50;99929.94;;;22.05;42.53
76603;BME280;65075;48.390;17.598;2023-05-02T13:28:15;99923.63;;;22.38;40.89